x

New London Ledge Ct - Ledge Light Weather Station (ldlc3) Weather Station

6:15am - Fri 28th Apr 2017 All times are EDT. -4 hours from GMT.

  • Wind
    6mph, 7mph gusts
  • Air Temp 51°f
  • Sea Pressure 1013.5mb
  • New London Ledge Ct - Ledge Light Weather Station
  • New London Ledge Ct - Ledge Light Weather Station

More Historic Weather Station data

Upgrade to MSW Pro to gain access to the past 30 days of data for over 8000 Wavebouys and Weather Stations around the globe.

Join Pro

Comparision Forecast

View Surf forecast
   
Fri 04/28 6:15am 6 7 mph 1013.5mb 51f
6:00am 9 11 mph 1013.1mb 51f
5:45am 11 13 mph 1012.4mb 50f
5:30am 10 11 mph 1012.5mb 50f
5:15am 11 13 mph 1012.3mb 51f
5:00am 11 13 mph 1012.1mb 51f
4:45am 13 14 mph 1012.1mb 50f
4:30am 14
mph
1012.3mb 50f
4:15am 14 15 mph 1012mb 51f
4:00am 13 14 mph 1012.1mb 51f
3:45am 14
mph
1012.3mb 51f
3:30am 13 14 mph 1012.4mb 51f
3:15am 9 10 mph 1012.8mb 51f
3:00am 10
mph
1012.6mb 51f
2:45am 9 10 mph 1012.7mb 51f
2:30am 9
mph
1012.6mb 51f
2:15am 10 11 mph 1012.4mb 51f
2:00am 10
mph
1012.5mb 51f
1:45am 10 11 mph 1012.7mb 51f
1:30am 11
mph
1012.8mb 51f
1:15am 11 13 mph 1012.9mb 51f
1:00am 13 14 mph 1013.1mb 51f
Thu 04/27 7:45pm 7 9 mph 1013.6mb 50f
7:15pm 11 13 mph 1013.2mb 52f
7:00pm 13 14 mph 1013mb 50f
6:45pm 14 15 mph 1012.6mb 50f
6:30pm 15 16 mph 1012.5mb 50f
6:15pm 15 16 mph 1012.5mb 50f
6:00pm 15 16 mph 1012.5mb 50f
5:45pm 14 16 mph 1012.5mb 51f
5:30pm 13 14 mph 1012.5mb 50f
5:15pm 13 14 mph 1012.5mb 51f
5:00pm 14 15 mph 1012.5mb 52f
4:45pm 14 15 mph 1012.5mb 52f
4:30pm 15 16 mph 1012.5mb 51f
4:15pm 15
mph
1012.5mb 51f
4:00pm 13
mph
1012.4mb 51f
3:45pm 13
mph
1012.5mb 52f
3:30pm 13 14 mph 1012.5mb 55f
3:15pm 11 13 mph 1012.5mb 55f
3:00pm 11
mph
1012.9mb 55f
2:45pm 10 11 mph 1012.9mb 54f
2:30pm 7 8 mph 1012.9mb 54f
2:15pm 6 7 mph 1012.9mb 55f
2:00pm 5
mph
1012.8mb 55f
1:45pm 1 2 mph 1013.1mb 55f
1:30pm 2
mph
1013.1mb 56f
1:15pm 2
mph
1013.2mb 56f
1:00pm 2 5 mph 1013.1mb 55f
12:45pm 2 3 mph 1013.2mb 54f
12:30pm 5
mph
1013.1mb 54f
12:15pm 7 8 mph 1013mb 52f
12:00pm 6 7 mph 1013mb 51f
11:45am 5 6 mph 1013.2mb 54f
11:30am 7 8 mph 1013.3mb 52f
11:15am 5 6 mph 1013.1mb 53f
11:00am 5
mph
1013.1mb 53f
10:45am 6 7 mph 1013.2mb 53f
10:30am 7
mph
1013.2mb 54f
10:15am 7
mph
1013.1mb 55f
10:00am 7
mph
1012.9mb 53f
9:45am 5
mph
1012.8mb 52f
9:30am 6
mph
1013mb 52f
9:15am 5 6 mph 1013mb 53f
9:00am 6 7 mph 1013mb 51f
8:45am 6 7 mph 1012.8mb 51f
8:30am 6
mph
1012.6mb 52f
8:15am 7 8 mph 1012.5mb 52f
8:00am 9
mph
1012.4mb 51f
7:45am 9 10 mph 1012.3mb 51f
7:30am 10 11 mph 1012.3mb 51f
7:15am 9 10 mph 1012mb 51f
7:00am 5
mph
1011.5mb 52f
6:45am 8 9 mph 1011.5mb 51f
6:30am 8 9 mph 1011.4mb 51f
6:15am 2 3 mph 1011.3mb 53f
6:00am 3
mph
1011mb 52f
5:45am 3 5 mph 1010.8mb 51f
5:30am 3 5 mph 1010.8mb 52f
5:15am 1 2 mph 1010.3mb 53f
5:00am 1 2 mph 1010.3mb 53f
4:45am 6 7 mph 1010.4mb 53f
4:30am 8
mph
1010.5mb 53f
4:15am 7 8 mph 1010.5mb 52f
4:00am 8 9 mph 1010.3mb 53f
3:45am 7 8 mph 1010.3mb 51f
3:30am 8
mph
1010.3mb 51f
3:15am 6 7 mph 1009.9mb 51f
3:00am 5
mph
1009.8mb 52f
2:45am 7
mph
1009.7mb 51f
2:30am 2
mph
1009.7mb 52f
2:15am 3 6 mph 1009.3mb 52f
2:00am 6
mph
1009.6mb 52f
1:45am  -  1 mph 1009.7mb 54f
1:30am 3 5 mph 1009.7mb 54f
1:15am 7
mph
1009.7mb 54f
1:00am 5
mph
1009.7mb 53f
Wed 04/26 7:45pm 9 11 mph 1008.2mb 51f
7:30pm 13 14 mph 1008.1mb 50f
7:15pm 16 17 mph 1007.8mb 52f
7:00pm 11 13 mph 1007.8mb 53f
6:45pm 3 5 mph 1007.7mb 57f
6:30pm 8 10 mph 1007.2mb 60f
6:15pm 7 8 mph 1007.2mb 59f
6:00pm 5 6 mph 1007.1mb 59f
5:45pm 5 6 mph 1007.1mb 58f
5:30pm 8
mph
1007mb 56f
5:15pm 8
mph
1007.2mb 56f
5:00pm 9 10 mph 1007.2mb 55f
4:45pm 9 10 mph 1007.2mb 55f
4:30pm 5
mph
1007.3mb 57f
4:15pm 6 7 mph 1007.4mb 57f
4:00pm 11 13 mph 1007.3mb 57f
3:45pm 13 14 mph 1007.3mb 55f
3:30pm 9 11 mph 1007.5mb 56f
3:15pm 8 9 mph 1007.5mb 56f
3:00pm 9 10 mph 1007.7mb 55f
2:45pm 10
mph
1008mb 55f
2:30pm 11
mph
1007.9mb 55f
2:15pm 13
mph
1008mb 55f
2:00pm 14 15 mph 1008mb 55f
1:45pm 15 16 mph 1008.1mb 55f
1:30pm 15
mph
1008.1mb 54f
1:15pm 13 14 mph 1008.1mb 54f
1:00pm 13
mph
1008.2mb 55f
12:45pm 9 11 mph 1008.2mb 55f
12:30pm 11 13 mph 1008.2mb 55f
12:15pm 6 8 mph 1008.1mb 55f
12:00pm 8 10 mph 1008.5mb 55f
11:45am 7 11 mph 1008.3mb 55f
11:30am 8 13 mph 1008.3mb 55f
11:15am 11 14 mph 1008.4mb 54f
11:00am 9 11 mph 1008.6mb 54f
10:45am 13 18 mph 1008.5mb 55f
10:30am 15 17 mph 1008.2mb 55f
10:15am 17 20 mph 1008.2mb 54f
10:00am 18 22 mph 1008.2mb 54f
9:45am 18 23 mph 1008.1mb 55f
9:30am 15 18 mph 1008.2mb 55f
9:15am 14 17 mph 1008.3mb 56f
9:00am 14 18 mph 1008.4mb 56f
8:45am 14 16 mph 1008.3mb 55f
8:30am 16 18 mph 1008.3mb 54f
8:15am 15 18 mph 1008.5mb 53f
8:00am 18 21 mph 1008.4mb 53f
7:45am 22 24 mph 1008.4mb 53f
7:30am 17 18 mph 1008.6mb 53f
7:15am 22 23 mph 1008.1mb 53f
7:00am 17 18 mph 1008.1mb 52f
6:45am 16 18 mph 1008.1mb 52f
6:30am 22 24 mph 1007.6mb 51f
6:15am 20 23 mph 1007.7mb 53f
6:00am 24 28 mph 1007.5mb 53f
5:45am 23 29 mph 1007.4mb 53f
5:30am 20 23 mph 1007.5mb 53f
5:15am 25 29 mph 1007.4mb 53f
5:00am 29 34 mph 1007.1mb 53f
4:45am 28 31 mph 1007mb 53f
4:30am 29 33 mph 1006.9mb 54f
4:15am 30 34 mph 1007mb 54f
4:00am 31 36 mph 1007.5mb 54f
3:45am 30 33 mph 1008.1mb 54f
3:30am 31 38 mph 1008.3mb 54f
3:15am 32 38 mph 1008.5mb 54f
3:00am 31 36 mph 1008.7mb 55f
2:45am 30 36 mph 1009.1mb 56f
2:30am 28 36 mph 1009.5mb 56f
2:15am 23 29 mph 1010.1mb 56f
2:00am 22 29 mph 1010.5mb 56f
1:45am 21 29 mph 1010.8mb 57f
1:30am 21 26 mph 1010.9mb 57f
1:15am 21 28 mph 1011.4mb 57f
1:00am 21 24 mph 1011.5mb 57f
Tue 04/25 7:45pm 21 26 mph 1015.7mb 53f
7:30pm 21 24 mph 1015.7mb 53f
7:15pm 17 21 mph 1016mb 52f
7:00pm 18 22 mph 1016.1mb 52f
6:45pm 17 23 mph 1016.4mb 52f
6:30pm 21 25 mph 1016mb 53f
6:15pm 22 29 mph 1016.3mb 53f
6:00pm 22 29 mph 1016.3mb 52f
5:45pm 21 26 mph 1016.5mb 52f
5:30pm 18 28 mph 1016.6mb 52f
5:15pm 17 25 mph 1016.9mb 52f
5:00pm 17 25 mph 1017mb 52f
4:45pm 18 24 mph 1017.3mb 52f
4:30pm 20 28 mph 1017.3mb 52f
4:15pm 23 30 mph 1017.3mb 52f
4:00pm 22 30 mph 1017.5mb 53f
3:45pm 21 30 mph 1017.7mb 53f
3:30pm 17 25 mph 1017.9mb 53f
3:15pm 18 24 mph 1017.9mb 53f
3:00pm 20 26 mph 1018mb 53f
2:45pm 18 25 mph 1018.3mb 53f
2:30pm 24 30 mph 1018.4mb 53f
2:15pm 20 26 mph 1018.5mb 53f
2:00pm 22 30 mph 1018.7mb 54f
1:45pm 21 28 mph 1018.7mb 54f
1:30pm 21 28 mph 1018.8mb 54f
1:15pm 21 29 mph 1018.5mb 55f
1:00pm 18 28 mph 1018.6mb 55f
12:45pm 17 25 mph 1018.8mb 55f
12:30pm 17 25 mph 1019.1mb 55f
12:15pm 22 30 mph 1019.2mb 55f
12:00pm 24 32 mph 1019.6mb 55f
11:45am 22 31 mph 1019.7mb 55f
11:30am 23 30 mph 1019.7mb 55f
11:15am 22 30 mph 1019.9mb 55f
11:00am 21 30 mph 1020.1mb 54f
10:45am 23 30 mph 1020.3mb 54f
10:30am 22 26 mph 1020.6mb 54f
10:15am 20 26 mph 1020.5mb 54f
10:00am 21 26 mph 1020.6mb 53f
9:45am 20 24 mph 1020.8mb 53f
9:30am 20 26 mph 1020.8mb 53f
9:15am 22 30 mph 1020.9mb 53f
9:00am 20 23 mph 1020.8mb 53f
8:45am 17 26 mph 1020.7mb 52f
8:30am 16 22 mph 1020.8mb 52f
8:15am 18 23 mph 1020.8mb 53f
8:00am 18 21 mph 1020.8mb 53f
7:45am 16 20 mph 1020.7mb 52f
7:30am 11 18 mph 1020.6mb 52f
7:15am 13 20 mph 1020.4mb 52f
7:00am 11 16 mph 1020.2mb 52f
6:45am 14 21 mph 1020.1mb 52f
6:30am 14 18 mph 1020.1mb 52f
6:15am 15 20 mph 1020.2mb 52f
6:00am 13 16 mph 1020.1mb 52f
5:45am 15 17 mph 1019.8mb 51f
5:30am 13 17 mph 1019.7mb 52f
5:15am 10 14 mph 1019.7mb 52f
5:00am 9 13 mph 1019.8mb 52f
4:45am 10 13 mph 1019.7mb 52f